Terminal Aerodrome Forecast
Issued by NWS Miami, FL

Home | Current Version | Previous Version | Text Only | Print | Product List | Glossary On
Versions: 1 2 3 4 5 6 7 8 9 10 11 12 13 14 15 16 17 18 19 20 21 22 23 24 25 26 27 28 29 30
000
FTUS42 KMFL 291453 AAA
TAFPBI
TAF AMD
KPBI 291453Z 2915/3012 VRB03KT P6SM FEW025 BKN250
     FM291800 17009KT P6SM VCTS SCT025CB SCT060 BKN200
     FM300000 VRB05KT P6SM VCSH SCT035 SCT100
     FM300200 VRB05KT P6SM SCT035 SCT100=

USA.gov is the U.S. government's official web portal to all federal, state and local government web resources and services.